sensor_id;sensor_type;location;lat;lon;timestamp;pressure;altitude;pressure_sealevel;temperature
76009;BMP280;64700;52.130;21.270;2023-08-30T00:01:46;99360.19;;;25.91
76009;BMP280;64700;52.130;21.270;2023-08-30T00:04:12;99370.41;;;25.91
76009;BMP280;64700;52.130;21.270;2023-08-30T00:06:37;99382.13;;;25.91
76009;BMP280;64700;52.130;21.270;2023-08-30T00:09:02;99390.34;;;25.91
76009;BMP280;64700;52.130;21.270;2023-08-30T00:11:28;99392.34;;;25.91
76009;BMP280;64700;52.130;21.270;2023-08-30T00:14:01;99394.34;;;25.90
76009;BMP280;64700;52.130;21.270;2023-08-30T00:16:26;99386.13;;;25.90
76009;BMP280;64700;52.130;21.270;2023-08-30T00:18:52;99403.28;;;25.91
76009;BMP280;64700;52.130;21.270;2023-08-30T00:21:17;99400.53;;;25.91
76009;BMP280;64700;52.130;21.270;2023-08-30T00:23:42;99406.78;;;25.91
76009;BMP280;64700;52.130;21.270;2023-08-30T00:26:07;99405.31;;;25.90
76009;BMP280;64700;52.130;21.270;2023-08-30T00:28:32;99411.50;;;25.91
76009;BMP280;64700;52.130;21.270;2023-08-30T00:30:57;99421.75;;;25.90
76009;BMP280;64700;52.130;21.270;2023-08-30T00:33:23;99422.47;;;25.91
76009;BMP280;64700;52.130;21.270;2023-08-30T00:35:54;99410.06;;;25.90
76009;BMP280;64700;52.130;21.270;2023-08-30T00:38:20;99399.84;;;25.90
76009;BMP280;64700;52.130;21.270;2023-08-30T00:40:45;99397.63;;;25.89
76009;BMP280;64700;52.130;21.270;2023-08-30T00:43:10;99396.34;;;25.90
76009;BMP280;64700;52.130;21.270;2023-08-30T00:45:35;99393.63;;;25.90
76009;BMP280;64700;52.130;21.270;2023-08-30T00:48:02;99416.97;;;25.91
76009;BMP280;64700;52.130;21.270;2023-08-30T00:50:29;99424.50;;;25.90
76009;BMP280;64700;52.130;21.270;2023-08-30T00:52:54;99423.75;;;25.90
76009;BMP280;64700;52.130;21.270;2023-08-30T00:55:19;99438.19;;;25.90
76009;BMP280;64700;52.130;21.270;2023-08-30T00:57:44;99442.19;;;25.89
76009;BMP280;64700;52.130;21.270;2023-08-30T01:00:10;99462.09;;;25.90
76009;BMP280;64700;52.130;21.270;2023-08-30T01:02:35;99469.56;;;25.89
76009;BMP280;64700;52.130;21.270;2023-08-30T01:05:02;99477.97;;;25.91
76009;BMP280;64700;52.130;21.270;2023-08-30T01:07:27;99479.78;;;25.89
76009;BMP280;64700;52.130;21.270;2023-08-30T01:09:52;99491.47;;;25.89
76009;BMP280;64700;52.130;21.270;2023-08-30T01:12:26;99491.47;;;25.89
76009;BMP280;64700;52.130;21.270;2023-08-30T01:15:09;99494.22;;;25.89
76009;BMP280;64700;52.130;21.270;2023-08-30T01:17:35;99494.22;;;25.89
76009;BMP280;64700;52.130;21.270;2023-08-30T01:20:01;99482.53;;;25.89
76009;BMP280;64700;52.130;21.270;2023-08-30T01:27:33;99479.78;;;25.89
76009;BMP280;64700;52.130;21.270;2023-08-30T01:29:59;99481.78;;;25.88
76009;BMP280;64700;52.130;21.270;2023-08-30T01:32:25;99477.56;;;25.87
76009;BMP280;64700;52.130;21.270;2023-08-30T01:34:53;99474.31;;;25.89
76009;BMP280;64700;52.130;21.270;2023-08-30T01:37:18;99476.31;;;25.88
76009;BMP280;64700;52.130;21.270;2023-08-30T01:39:43;99482.53;;;25.89
76009;BMP280;64700;52.130;21.270;2023-08-30T01:42:09;99489.47;;;25.90
76009;BMP280;64700;52.130;21.270;2023-08-30T01:44:35;99470.81;;;25.88
76009;BMP280;64700;52.130;21.270;2023-08-30T01:47:01;99468.09;;;25.88
76009;BMP280;64700;52.130;21.270;2023-08-30T01:49:28;99470.09;;;25.88
76009;BMP280;64700;52.130;21.270;2023-08-30T01:51:56;99467.34;;;25.88
76009;BMP280;64700;52.130;21.270;2023-08-30T01:54:22;99461.13;;;25.87
76009;BMP280;64700;52.130;21.270;2023-08-30T01:56:47;99462.59;;;25.88
76009;BMP280;64700;52.130;21.270;2023-08-30T01:59:13;99450.91;;;25.88
76009;BMP280;64700;52.130;21.270;2023-08-30T02:01:38;99454.38;;;25.88
76009;BMP280;64700;52.130;21.270;2023-08-30T02:04:03;99445.44;;;25.88
76009;BMP280;64700;52.130;21.270;2023-08-30T02:07:13;99443.44;;;25.88
76009;BMP280;64700;52.130;21.270;2023-08-30T02:09:17;99433.75;;;25.87
76009;BMP280;64700;52.130;21.270;2023-08-30T02:11:45;99433.75;;;25.87
76009;BMP280;64700;52.130;21.270;2023-08-30T02:14:11;99422.06;;;25.87
76009;BMP280;64700;52.130;21.270;2023-08-30T02:16:38;99413.13;;;25.86
76009;BMP280;64700;52.130;21.270;2023-08-30T02:19:04;99406.34;;;25.87
76009;BMP280;64700;52.130;21.270;2023-08-30T02:21:30;99399.41;;;25.86
76009;BMP280;64700;52.130;21.270;2023-08-30T02:23:55;99402.91;;;25.87
76009;BMP280;64700;52.130;21.270;2023-08-30T02:26:20;99387.19;;;25.87
76009;BMP280;64700;52.130;21.270;2023-08-30T02:28:46;99383.00;;;25.86
76009;BMP280;64700;52.130;21.270;2023-08-30T02:31:11;99384.44;;;25.87
76009;BMP280;64700;52.130;21.270;2023-08-30T02:33:36;99387.19;;;25.87
76009;BMP280;64700;52.130;21.270;2023-08-30T02:36:02;99387.91;;;25.88
76009;BMP280;64700;52.130;21.270;2023-08-30T02:38:27;99378.97;;;25.87
76009;BMP280;64700;52.130;21.270;2023-08-30T02:40:52;99383.00;;;25.86
76009;BMP280;64700;52.130;21.270;2023-08-30T02:43:18;99384.44;;;25.87
76009;BMP280;64700;52.130;21.270;2023-08-30T02:45:43;99383.72;;;25.87
76009;BMP280;64700;52.130;21.270;2023-08-30T02:48:08;99383.72;;;25.87
76009;BMP280;64700;52.130;21.270;2023-08-30T02:50:33;99376.75;;;25.86
76009;BMP280;64700;52.130;21.270;2023-08-30T02:52:58;99382.25;;;25.86
76009;BMP280;64700;52.130;21.270;2023-08-30T02:55:24;99379.50;;;25.86
76009;BMP280;64700;52.130;21.270;2023-08-30T02:57:49;99384.25;;;25.85
76009;BMP280;64700;52.130;21.270;2023-08-30T03:00:14;99384.97;;;25.86
76009;BMP280;64700;52.130;21.270;2023-08-30T03:02:39;99395.19;;;25.85
76009;BMP280;64700;52.130;21.270;2023-08-30T03:05:05;99393.19;;;25.86
76009;BMP280;64700;52.130;21.270;2023-08-30T03:07:30;99386.25;;;25.85
76009;BMP280;64700;52.130;21.270;2023-08-30T03:09:55;99386.97;;;25.85
76009;BMP280;64700;52.130;21.270;2023-08-30T03:12:20;99369.81;;;25.85
76009;BMP280;64700;52.130;21.270;2023-08-30T03:14:46;99358.84;;;25.85
76009;BMP280;64700;52.130;21.270;2023-08-30T03:17:11;99352.63;;;25.84
76009;BMP280;64700;52.130;21.270;2023-08-30T03:19:36;99361.59;;;25.85
76009;BMP280;64700;52.130;21.270;2023-08-30T03:22:01;99348.63;;;25.85
76009;BMP280;64700;52.130;21.270;2023-08-30T03:24:26;99346.44;;;25.84
76009;BMP280;64700;52.130;21.270;2023-08-30T03:26:52;99356.66;;;25.83
76009;BMP280;64700;52.130;21.270;2023-08-30T03:29:17;99367.06;;;25.85
76009;BMP280;64700;52.130;21.270;2023-08-30T03:31:42;99365.63;;;25.84
76009;BMP280;64700;52.130;21.270;2023-08-30T03:34:09;99372.56;;;25.85
76009;BMP280;64700;52.130;21.270;2023-08-30T03:36:34;99380.03;;;25.84
76009;BMP280;64700;52.130;21.270;2023-08-30T03:39:00;99382.75;;;25.84
76009;BMP280;64700;52.130;21.270;2023-08-30T03:41:25;99380.75;;;25.85
76009;BMP280;64700;52.130;21.270;2023-08-30T03:43:50;99379.31;;;25.84
76009;BMP280;64700;52.130;21.270;2023-08-30T03:46:15;99375.09;;;25.83
76009;BMP280;64700;52.130;21.270;2023-08-30T03:48:40;99371.63;;;25.82
76009;BMP280;64700;52.130;21.270;2023-08-30T03:51:05;99368.88;;;25.82
76009;BMP280;64700;52.130;21.270;2023-08-30T03:53:31;99369.63;;;25.83
76009;BMP280;64700;52.130;21.270;2023-08-30T03:55:56;99366.88;;;25.83
76009;BMP280;64700;52.130;21.270;2023-08-30T03:58:21;99366.13;;;25.82
76009;BMP280;64700;52.130;21.270;2023-08-30T04:00:47;99374.34;;;25.82
76009;BMP280;64700;52.130;21.270;2023-08-30T04:03:13;99374.34;;;25.82
76009;BMP280;64700;52.130;21.270;2023-08-30T04:05:38;99373.59;;;25.82
76009;BMP280;64700;52.130;21.270;2023-08-30T04:08:04;99379.09;;;25.82
76009;BMP280;64700;52.130;21.270;2023-08-30T04:10:29;99359.91;;;25.82
76009;BMP280;64700;52.130;21.270;2023-08-30T04:12:59;99366.63;;;25.81
76009;BMP280;64700;52.130;21.270;2023-08-30T04:15:24;99367.41;;;25.81
76009;BMP280;64700;52.130;21.270;2023-08-30T04:17:49;99367.41;;;25.81
76009;BMP280;64700;52.130;21.270;2023-08-30T04:20:15;99366.63;;;25.81
76009;BMP280;64700;52.130;21.270;2023-08-30T04:22:40;99359.69;;;25.80
76009;BMP280;64700;52.130;21.270;2023-08-30T04:25:05;99351.47;;;25.80
76009;BMP280;64700;52.130;21.270;2023-08-30T04:27:32;99371.41;;;25.80
76009;BMP280;64700;52.130;21.270;2023-08-30T04:29:57;99392.03;;;25.81
76009;BMP280;64700;52.130;21.270;2023-08-30T04:32:22;99391.28;;;25.81
76009;BMP280;64700;52.130;21.270;2023-08-30T04:34:48;99381.84;;;25.82
76009;BMP280;64700;52.130;21.270;2023-08-30T04:37:13;99373.59;;;25.82
76009;BMP280;64700;52.130;21.270;2023-08-30T04:39:38;99377.59;;;25.81
76009;BMP280;64700;52.130;21.270;2023-08-30T04:42:03;99390.56;;;25.80
76009;BMP280;64700;52.130;21.270;2023-08-30T04:44:29;99390.03;;;25.82
76009;BMP280;64700;52.130;21.270;2023-08-30T04:46:54;99392.56;;;25.80
76009;BMP280;64700;52.130;21.270;2023-08-30T04:49:19;99405.50;;;25.79
76009;BMP280;64700;52.130;21.270;2023-08-30T04:51:44;99400.78;;;25.80
76009;BMP280;64700;52.130;21.270;2023-08-30T04:54:10;99407.00;;;25.80
76009;BMP280;64700;52.130;21.270;2023-08-30T04:56:35;99409.00;;;25.80
76009;BMP280;64700;52.130;21.270;2023-08-30T04:59:00;99405.50;;;25.79
76009;BMP280;64700;52.130;21.270;2023-08-30T05:01:28;99400.03;;;25.79
76009;BMP280;64700;52.130;21.270;2023-08-30T05:03:54;99406.25;;;25.80
76009;BMP280;64700;52.130;21.270;2023-08-30T05:06:19;99429.63;;;25.81
76009;BMP280;64700;52.130;21.270;2023-08-30T05:08:44;99445.34;;;25.80
76009;BMP280;64700;52.130;21.270;2023-08-30T05:11:09;99442.59;;;25.80
76009;BMP280;64700;52.130;21.270;2023-08-30T05:13:34;99461.75;;;25.80
76009;BMP280;64700;52.130;21.270;2023-08-30T05:16:00;99460.28;;;25.79
76009;BMP280;64700;52.130;21.270;2023-08-30T05:18:25;99458.78;;;25.78
76009;BMP280;64700;52.130;21.270;2023-08-30T05:20:50;99452.81;;;25.80
76009;BMP280;64700;52.130;21.270;2023-08-30T05:23:15;99449.31;;;25.79
76009;BMP280;64700;52.130;21.270;2023-08-30T05:25:40;99457.53;;;25.79
76009;BMP280;64700;52.130;21.270;2023-08-30T05:28:05;99455.31;;;25.78
76009;BMP280;64700;52.130;21.270;2023-08-30T05:30:31;99457.34;;;25.77
76009;BMP280;64700;52.130;21.270;2023-08-30T05:32:56;99466.28;;;25.78
76009;BMP280;64700;52.130;21.270;2023-08-30T05:35:21;99469.75;;;25.78
76009;BMP280;64700;52.130;21.270;2023-08-30T05:37:46;99471.22;;;25.79
76009;BMP280;64700;52.130;21.270;2023-08-30T05:40:13;99467.00;;;25.78
76009;BMP280;64700;52.130;21.270;2023-08-30T05:42:41;99470.50;;;25.79
76009;BMP280;64700;52.130;21.270;2023-08-30T05:45:07;99478.72;;;25.79
76009;BMP280;64700;52.130;21.270;2023-08-30T05:47:32;99475.97;;;25.79
76009;BMP280;64700;52.130;21.270;2023-08-30T05:49:57;99473.22;;;25.79
76009;BMP280;64700;52.130;21.270;2023-08-30T05:52:23;99469.00;;;25.78
76009;BMP280;64700;52.130;21.270;2023-08-30T05:54:50;99463.53;;;25.78
76009;BMP280;64700;52.130;21.270;2023-08-30T05:57:15;99460.59;;;25.76
76009;BMP280;64700;52.130;21.270;2023-08-30T05:59:40;99458.06;;;25.78
76009;BMP280;64700;52.130;21.270;2023-08-30T06:02:05;99458.59;;;25.76
76009;BMP280;64700;52.130;21.270;2023-08-30T06:04:31;99456.59;;;25.77
76009;BMP280;64700;52.130;21.270;2023-08-30T06:06:56;99454.59;;;25.77
76009;BMP280;64700;52.130;21.270;2023-08-30T06:09:21;99446.41;;;25.77
76009;BMP280;64700;52.130;21.270;2023-08-30T06:11:46;99467.56;;;25.77
76009;BMP280;64700;52.130;21.270;2023-08-30T06:14:11;99458.06;;;25.78
76009;BMP280;64700;52.130;21.270;2023-08-30T06:16:37;99459.53;;;25.79
76009;BMP280;64700;52.130;21.270;2023-08-30T06:19:02;99463.53;;;25.78
76009;BMP280;64700;52.130;21.270;2023-08-30T06:21:27;99461.53;;;25.78
76009;BMP280;64700;52.130;21.270;2023-08-30T06:23:52;99462.81;;;25.77
76009;BMP280;64700;52.130;21.270;2023-08-30T06:26:18;99468.31;;;25.77
76009;BMP280;64700;52.130;21.270;2023-08-30T06:28:43;99465.56;;;25.77
76009;BMP280;64700;52.130;21.270;2023-08-30T06:31:09;99464.81;;;25.77
76009;BMP280;64700;52.130;21.270;2023-08-30T06:33:34;99475.03;;;25.76
76009;BMP280;64700;52.130;21.270;2023-08-30T06:36:00;99481.75;;;25.75
76009;BMP280;64700;52.130;21.270;2023-08-30T06:38:26;99472.28;;;25.76
76009;BMP280;64700;52.130;21.270;2023-08-30T06:40:51;99475.53;;;25.75
76009;BMP280;64700;52.130;21.270;2023-08-30T06:43:16;99476.28;;;25.75
76009;BMP280;64700;52.130;21.270;2023-08-30T06:45:41;99477.78;;;25.76
76009;BMP280;64700;52.130;21.270;2023-08-30T06:48:07;99480.50;;;25.76
76009;BMP280;64700;52.130;21.270;2023-08-30T06:50:35;99472.59;;;25.73
76009;BMP280;64700;52.130;21.270;2023-08-30T06:53:01;99472.81;;;25.75
76009;BMP280;64700;52.130;21.270;2023-08-30T06:55:26;99476.28;;;25.75
76009;BMP280;64700;52.130;21.270;2023-08-30T06:57:52;99477.03;;;25.76
76009;BMP280;64700;52.130;21.270;2023-08-30T07:00:17;99471.56;;;25.76
76009;BMP280;64700;52.130;21.270;2023-08-30T07:02:43;99464.06;;;25.76
76009;BMP280;64700;52.130;21.270;2023-08-30T07:05:10;99474.28;;;25.76
76009;BMP280;64700;52.130;21.270;2023-08-30T07:07:35;99477.78;;;25.76
76009;BMP280;64700;52.130;21.270;2023-08-30T07:10:01;99472.28;;;25.76
76009;BMP280;64700;52.130;21.270;2023-08-30T07:12:26;99479.03;;;25.75
76009;BMP280;64700;52.130;21.270;2023-08-30T07:14:51;99472.81;;;25.75
76009;BMP280;64700;52.130;21.270;2023-08-30T07:17:16;99472.28;;;25.76
76009;BMP280;64700;52.130;21.270;2023-08-30T07:19:41;99475.78;;;25.77
76009;BMP280;64700;52.130;21.270;2023-08-30T07:22:07;99475.78;;;25.77
76009;BMP280;64700;52.130;21.270;2023-08-30T07:24:32;99473.78;;;25.77
76009;BMP280;64700;52.130;21.270;2023-08-30T07:26:57;99477.97;;;25.78
76009;BMP280;64700;52.130;21.270;2023-08-30T07:29:22;99470.28;;;25.77
76009;BMP280;64700;52.130;21.270;2023-08-30T07:31:47;99479.97;;;25.78
76009;BMP280;64700;52.130;21.270;2023-08-30T07:34:13;99477.03;;;25.76
76009;BMP280;64700;52.130;21.270;2023-08-30T07:36:38;99473.78;;;25.77
76009;BMP280;64700;52.130;21.270;2023-08-30T07:39:03;99470.81;;;25.75
76009;BMP280;64700;52.130;21.270;2023-08-30T07:41:28;99461.34;;;25.76
76009;BMP280;64700;52.130;21.270;2023-08-30T07:43:53;99468.50;;;25.79
76009;BMP280;64700;52.130;21.270;2023-08-30T07:46:19;99470.50;;;25.79
76009;BMP280;64700;52.130;21.270;2023-08-30T07:48:44;99457.44;;;25.72
76009;BMP280;64700;52.130;21.270;2023-08-30T07:51:09;99448.88;;;25.49
76009;BMP280;64700;52.130;21.270;2023-08-30T07:53:34;99454.13;;;25.47
76009;BMP280;64700;52.130;21.270;2023-08-30T07:55:59;99448.03;;;25.54
76009;BMP280;64700;52.130;21.270;2023-08-30T07:58:25;99444.59;;;25.53
76009;BMP280;64700;52.130;21.270;2023-08-30T08:00:50;99442.38;;;25.52
76009;BMP280;64700;52.130;21.270;2023-08-30T08:03:15;99441.59;;;25.51
76009;BMP280;64700;52.130;21.270;2023-08-30T08:05:41;99438.84;;;25.51
76009;BMP280;64700;52.130;21.270;2023-08-30T08:08:06;99441.59;;;25.51
76009;BMP280;64700;52.130;21.270;2023-08-30T08:10:32;99436.66;;;25.50
76009;BMP280;64700;52.130;21.270;2023-08-30T08:12:58;99437.41;;;25.50
76009;BMP280;64700;52.130;21.270;2023-08-30T08:15:23;99433.94;;;25.50
76009;BMP280;64700;52.130;21.270;2023-08-30T08:17:49;99434.66;;;25.50
76009;BMP280;64700;52.130;21.270;2023-08-30T08:20:14;99437.91;;;25.49
76009;BMP280;64700;52.130;21.270;2023-08-30T08:22:39;99435.69;;;25.47
76009;BMP280;64700;52.130;21.270;2023-08-30T08:25:05;99433.69;;;25.48
76009;BMP280;64700;52.130;21.270;2023-08-30T08:27:30;99434.97;;;25.47
76009;BMP280;64700;52.130;21.270;2023-08-30T08:29:55;99430.75;;;25.46
76009;BMP280;64700;52.130;21.270;2023-08-30T08:32:20;99434.97;;;25.47
76009;BMP280;64700;52.130;21.270;2023-08-30T08:34:45;99435.50;;;25.45
76009;BMP280;64700;52.130;21.270;2023-08-30T08:37:11;99437.50;;;25.45
76009;BMP280;64700;52.130;21.270;2023-08-30T08:39:36;99441.47;;;25.44
76009;BMP280;64700;52.130;21.270;2023-08-30T08:42:01;99442.97;;;25.45
76009;BMP280;64700;52.130;21.270;2023-08-30T08:44:28;99444.22;;;25.44
76009;BMP280;64700;52.130;21.270;2023-08-30T08:46:56;99454.34;;;25.49
76009;BMP280;64700;52.130;21.270;2023-08-30T08:49:21;99444.16;;;25.62
76009;BMP280;64700;52.130;21.270;2023-08-30T08:51:47;99445.53;;;25.56
76009;BMP280;64700;52.130;21.270;2023-08-30T08:54:12;99451.59;;;25.49
76009;BMP280;64700;52.130;21.270;2023-08-30T08:56:38;99446.56;;;25.40
76009;BMP280;64700;52.130;21.270;2023-08-30T08:59:03;99459.03;;;25.35
76009;BMP280;64700;52.130;21.270;2023-08-30T09:01:30;99450.09;;;25.35
76009;BMP280;64700;52.130;21.270;2023-08-30T09:03:58;99447.91;;;25.33
76009;BMP280;64700;52.130;21.270;2023-08-30T09:06:23;99451.88;;;25.32
76009;BMP280;64700;52.130;21.270;2023-08-30T09:08:48;99451.88;;;25.32
76009;BMP280;64700;52.130;21.270;2023-08-30T09:11:14;99449.34;;;25.34
76009;BMP280;64700;52.130;21.270;2023-08-30T09:13:42;99449.69;;;25.44
76009;BMP280;64700;52.130;21.270;2023-08-30T09:16:12;99449.59;;;25.49
76009;BMP280;64700;52.130;21.270;2023-08-30T09:18:38;99448.25;;;25.56
76009;BMP280;64700;52.130;21.270;2023-08-30T09:21:10;99445.84;;;25.52
76009;BMP280;64700;52.130;21.270;2023-08-30T09:23:35;99444.44;;;25.46
76009;BMP280;64700;52.130;21.270;2023-08-30T09:26:01;99448.66;;;25.47
76009;BMP280;64700;52.130;21.270;2023-08-30T09:28:27;99444.44;;;25.46
76009;BMP280;64700;52.130;21.270;2023-08-30T09:30:52;99436.44;;;25.48
76009;BMP280;64700;52.130;21.270;2023-08-30T09:33:29;99443.41;;;25.49
76009;BMP280;64700;52.130;21.270;2023-08-30T09:35:55;99438.97;;;25.46
76009;BMP280;64700;52.130;21.270;2023-08-30T09:38:20;99439.72;;;25.46
76009;BMP280;64700;52.130;21.270;2023-08-30T09:40:46;99439.72;;;25.46
76009;BMP280;64700;52.130;21.270;2023-08-30T09:43:12;99440.44;;;25.47
76009;BMP280;64700;52.130;21.270;2023-08-30T09:45:37;99436.25;;;25.46
76009;BMP280;64700;52.130;21.270;2023-08-30T09:48:02;99433.50;;;25.46
76009;BMP280;64700;52.130;21.270;2023-08-30T09:50:28;99445.38;;;25.48
76009;BMP280;64700;52.130;21.270;2023-08-30T09:52:54;99453.59;;;25.48
76009;BMP280;64700;52.130;21.270;2023-08-30T09:55:19;99454.84;;;25.47
76009;BMP280;64700;52.130;21.270;2023-08-30T09:57:45;99453.81;;;25.50
76009;BMP280;64700;52.130;21.270;2023-08-30T10:00:11;99459.00;;;25.54
76009;BMP280;64700;52.130;21.270;2023-08-30T10:02:41;99455.75;;;25.55
76009;BMP280;64700;52.130;21.270;2023-08-30T10:05:08;99455.16;;;25.44
76009;BMP280;64700;52.130;21.270;2023-08-30T10:07:33;99459.69;;;25.41
76009;BMP280;64700;52.130;21.270;2023-08-30T10:09:59;99459.38;;;25.45
76009;BMP280;64700;52.130;21.270;2023-08-30T10:12:24;99452.03;;;25.40
76009;BMP280;64700;52.130;21.270;2023-08-30T10:14:50;99444.88;;;25.37
76009;BMP280;64700;52.130;21.270;2023-08-30T10:17:16;99440.78;;;25.43
76009;BMP280;64700;52.130;21.270;2023-08-30T10:19:42;99433.50;;;25.46
76009;BMP280;64700;52.130;21.270;2023-08-30T10:22:08;99436.88;;;25.52
76009;BMP280;64700;52.130;21.270;2023-08-30T10:24:39;99442.38;;;25.52
76009;BMP280;64700;52.130;21.270;2023-08-30T10:27:06;99448.59;;;25.34
76009;BMP280;64700;52.130;21.270;2023-08-30T10:29:35;99450.50;;;25.26
76009;BMP280;64700;52.130;21.270;2023-08-30T10:32:04;99462.72;;;25.24
76009;BMP280;64700;52.130;21.270;2023-08-30T10:34:33;99457.03;;;25.22
76009;BMP280;64700;52.130;21.270;2023-08-30T10:37:02;99452.50;;;25.25
76009;BMP280;64700;52.130;21.270;2023-08-30T10:39:35;99447.31;;;25.21
76009;BMP280;64700;52.130;21.270;2023-08-30T10:42:01;99440.19;;;25.32
76009;BMP280;64700;52.130;21.270;2023-08-30T10:44:31;99452.63;;;25.33
76009;BMP280;64700;52.130;21.270;2023-08-30T10:46:56;99457.28;;;25.38
76009;BMP280;64700;52.130;21.270;2023-08-30T10:49:22;99451.41;;;25.47
76009;BMP280;64700;52.130;21.270;2023-08-30T10:51:54;99456.88;;;25.47
76009;BMP280;64700;52.130;21.270;2023-08-30T10:54:20;99447.38;;;25.48
76009;BMP280;64700;52.130;21.270;2023-08-30T10:59:18;99451.06;;;25.37
76009;BMP280;64700;52.130;21.270;2023-08-30T11:01:46;99453.28;;;25.39
76009;BMP280;64700;52.130;21.270;2023-08-30T11:04:12;99456.75;;;25.39
76009;BMP280;64700;52.130;21.270;2023-08-30T11:06:39;99454.09;;;25.34
76009;BMP280;64700;52.130;21.270;2023-08-30T11:09:04;99455.13;;;25.31
76009;BMP280;64700;52.130;21.270;2023-08-30T11:11:29;99450.28;;;25.23
76009;BMP280;64700;52.130;21.270;2023-08-30T11:14:03;99449.03;;;25.24
76009;BMP280;64700;52.130;21.270;2023-08-30T11:16:31;99453.25;;;25.26
76009;BMP280;64700;52.130;21.270;2023-08-30T11:18:56;99461.22;;;25.23
76009;BMP280;64700;52.130;21.270;2023-08-30T11:21:21;99453.44;;;25.28
76009;BMP280;64700;52.130;21.270;2023-08-30T11:23:46;99451.88;;;25.32
76009;BMP280;64700;52.130;21.270;2023-08-30T11:26:11;99455.38;;;25.33
76009;BMP280;64700;52.130;21.270;2023-08-30T11:28:37;99461.78;;;25.35
76009;BMP280;64700;52.130;21.270;2023-08-30T11:31:08;99458.00;;;25.38
76009;BMP280;64700;52.130;21.270;2023-08-30T11:33:33;99464.97;;;25.39
76009;BMP280;64700;52.130;21.270;2023-08-30T11:35:58;99468.44;;;25.40
76009;BMP280;64700;52.130;21.270;2023-08-30T11:38:25;99462.25;;;25.39
76009;BMP280;64700;52.130;21.270;2023-08-30T11:40:51;99462.97;;;25.40
76009;BMP280;64700;52.130;21.270;2023-08-30T11:43:16;99457.50;;;25.40
76009;BMP280;64700;52.130;21.270;2023-08-30T11:45:41;99471.38;;;25.42
76009;BMP280;64700;52.130;21.270;2023-08-30T11:48:07;99461.19;;;25.42
76009;BMP280;64700;52.130;21.270;2023-08-30T11:50:32;99462.25;;;25.39
76009;BMP280;64700;52.130;21.270;2023-08-30T11:52:58;99466.97;;;25.39
76009;BMP280;64700;52.130;21.270;2023-08-30T11:55:23;99465.47;;;25.38
76009;BMP280;64700;52.130;21.270;2023-08-30T11:57:49;99476.72;;;25.34
76009;BMP280;64700;52.130;21.270;2023-08-30T12:00:15;99475.97;;;25.34
76009;BMP280;64700;52.130;21.270;2023-08-30T12:02:43;99479.56;;;25.29
76009;BMP280;64700;52.130;21.270;2023-08-30T12:05:12;99480.63;;;25.26
76009;BMP280;64700;52.130;21.270;2023-08-30T12:07:38;99491.31;;;25.23
76009;BMP280;64700;52.130;21.270;2023-08-30T12:10:07;99484.59;;;25.24
76009;BMP280;64700;52.130;21.270;2023-08-30T12:12:33;99500.28;;;25.24
76009;BMP280;64700;52.130;21.270;2023-08-30T12:15:01;99488.28;;;25.27
76009;BMP280;64700;52.130;21.270;2023-08-30T12:17:27;99493.03;;;25.27
76009;BMP280;64700;52.130;21.270;2023-08-30T12:19:56;99494.06;;;25.23
76009;BMP280;64700;52.130;21.270;2023-08-30T12:22:21;99482.16;;;25.21
76009;BMP280;64700;52.130;21.270;2023-08-30T12:24:46;99478.06;;;25.28
76009;BMP280;64700;52.130;21.270;2023-08-30T12:27:14;99482.09;;;25.27
76009;BMP280;64700;52.130;21.270;2023-08-30T12:29:40;99474.69;;;25.21
76009;BMP280;64700;52.130;21.270;2023-08-30T12:32:06;99470.47;;;25.20
76009;BMP280;64700;52.130;21.270;2023-08-30T12:34:31;99463.72;;;25.21
76009;BMP280;64700;52.130;21.270;2023-08-30T12:36:56;99461.78;;;25.22
76009;BMP280;64700;52.130;21.270;2023-08-30T12:39:22;99467.97;;;25.22
76009;BMP280;64700;52.130;21.270;2023-08-30T12:41:47;99466.97;;;25.20
76009;BMP280;64700;52.130;21.270;2023-08-30T12:44:12;99472.25;;;25.18
76009;BMP280;64700;52.130;21.270;2023-08-30T12:46:37;99475.50;;;25.16
76009;BMP280;64700;52.130;21.270;2023-08-30T12:49:05;99489.91;;;25.17
76009;BMP280;64700;52.130;21.270;2023-08-30T12:51:31;99488.66;;;25.18
76009;BMP280;64700;52.130;21.270;2023-08-30T12:53:56;99492.88;;;25.19
76009;BMP280;64700;52.130;21.270;2023-08-30T12:56:21;99492.13;;;25.18
76009;BMP280;64700;52.130;21.270;2023-08-30T12:58:46;99481.19;;;25.18
76009;BMP280;64700;52.130;21.270;2023-08-30T13:01:12;99474.34;;;25.12
76009;BMP280;64700;52.130;21.270;2023-08-30T13:03:37;99468.25;;;25.19
76009;BMP280;64700;52.130;21.270;2023-08-30T13:06:02;99470.47;;;25.20
76009;BMP280;64700;52.130;21.270;2023-08-30T13:08:29;99480.38;;;25.23
76009;BMP280;64700;52.130;21.270;2023-08-30T13:10:54;99483.13;;;25.23
76009;BMP280;64700;52.130;21.270;2023-08-30T13:13:19;99466.69;;;25.23
76009;BMP280;64700;52.130;21.270;2023-08-30T13:15:46;99465.97;;;25.23
76009;BMP280;64700;52.130;21.270;2023-08-30T13:18:11;99464.69;;;25.24
76009;BMP280;64700;52.130;21.270;2023-08-30T13:20:39;99463.72;;;25.21
76009;BMP280;64700;52.130;21.270;2023-08-30T13:23:04;99469.72;;;25.20
76009;BMP280;64700;52.130;21.270;2023-08-30T13:25:29;99473.94;;;25.21
76009;BMP280;64700;52.130;21.270;2023-08-30T13:27:55;99465.72;;;25.21
76009;BMP280;64700;52.130;21.270;2023-08-30T13:30:20;99467.72;;;25.20
76009;BMP280;64700;52.130;21.270;2023-08-30T13:32:45;99457.53;;;25.21
76009;BMP280;64700;52.130;21.270;2023-08-30T13:35:10;99462.25;;;25.20
76009;BMP280;64700;52.130;21.270;2023-08-30T13:37:35;99455.31;;;25.19
76009;BMP280;64700;52.130;21.270;2023-08-30T13:40:01;99469.00;;;25.19
76009;BMP280;64700;52.130;21.270;2023-08-30T13:42:26;99468.25;;;25.19
76009;BMP280;64700;52.130;21.270;2023-08-30T13:44:51;99462.03;;;25.18
76009;BMP280;64700;52.130;21.270;2023-08-30T13:47:16;99462.03;;;25.18
76009;BMP280;64700;52.130;21.270;2023-08-30T13:49:41;99472.03;;;25.16
76009;BMP280;64700;52.130;21.270;2023-08-30T13:52:07;99469.81;;;25.14
76009;BMP280;64700;52.130;21.270;2023-08-30T13:54:32;99459.19;;;25.11
76009;BMP280;64700;52.130;21.270;2023-08-30T13:56:57;99455.63;;;25.16